createdAt,value
2019-03-19T00:04:17.714Z,5.70
2019-03-19T00:09:12.331Z,5.20
2019-03-19T00:14:06.977Z,6.20
2019-03-19T00:19:01.584Z,6.50
2019-03-19T00:23:56.165Z,5.80
2019-03-19T00:28:50.768Z,5.47
2019-03-19T00:33:45.339Z,6.60
2019-03-19T00:38:39.951Z,6.80
2019-03-19T00:43:34.529Z,8.37
2019-03-19T00:48:29.148Z,9.97
2019-03-19T00:53:23.793Z,9.73
2019-03-19T00:58:18.398Z,9.90
2019-03-19T01:03:13.059Z,10.33
2019-03-19T01:08:07.746Z,10.30
2019-03-19T01:13:02.325Z,10.63
2019-03-19T01:17:56.959Z,11.10
2019-03-19T01:22:51.565Z,12.37
2019-03-19T01:27:46.174Z,15.93
2019-03-19T01:32:40.757Z,15.87
2019-03-19T01:37:35.359Z,15.83
2019-03-19T01:42:29.943Z,14.57
2019-03-19T01:47:24.622Z,14.57
2019-03-19T01:52:19.210Z,14.40
2019-03-19T01:57:13.808Z,15.90
2019-03-19T02:02:08.881Z,18.93
2019-03-19T02:07:03.480Z,21.00
2019-03-19T02:11:58.087Z,20.20
2019-03-19T02:16:52.659Z,24.03
2019-03-19T02:21:47.303Z,19.97
2019-03-19T02:26:41.900Z,24.13
2019-03-19T02:31:36.511Z,22.20
2019-03-19T02:36:31.107Z,21.57
2019-03-19T02:41:25.706Z,22.63
2019-03-19T02:46:20.292Z,17.87
2019-03-19T02:51:14.911Z,16.97
2019-03-19T02:56:09.504Z,20.00
2019-03-19T03:01:04.255Z,18.90
2019-03-19T03:05:58.848Z,16.00
2019-03-19T03:10:53.430Z,20.60
2019-03-19T03:15:48.089Z,18.07
2019-03-19T03:20:42.776Z,17.77
2019-03-19T03:25:37.359Z,14.97
2019-03-19T03:30:31.982Z,12.30
2019-03-19T03:35:26.559Z,15.03
2019-03-19T03:40:21.708Z,17.57
2019-03-19T03:45:19.281Z,14.87
2019-03-19T03:50:16.212Z,15.30
2019-03-19T03:55:16.173Z,12.43
2019-03-19T04:00:23.540Z,12.67
2019-03-19T04:05:18.312Z,13.47
2019-03-19T04:10:17.775Z,12.87
2019-03-19T04:15:15.619Z,13.93
2019-03-19T04:20:15.774Z,10.83
2019-03-19T04:25:11.988Z,15.43
2019-03-19T04:30:15.312Z,16.97
2019-03-19T04:35:10.100Z,16.50
2019-03-19T04:40:07.855Z,14.43
2019-03-19T04:45:02.448Z,16.17
2019-03-19T04:49:57.062Z,12.90
2019-03-19T04:54:51.640Z,15.33
2019-03-19T04:59:46.246Z,14.73
2019-03-19T05:04:40.853Z,13.30
2019-03-19T05:09:35.460Z,15.07
2019-03-19T05:14:30.081Z,13.70
2019-03-19T05:19:24.687Z,12.90
2019-03-19T05:24:19.271Z,16.13
2019-03-19T05:29:13.895Z,16.27
2019-03-19T05:34:08.481Z,17.20
2019-03-19T05:39:04.784Z,15.73
2019-03-19T05:43:59.364Z,13.90
2019-03-19T05:48:59.829Z,14.30
2019-03-19T05:53:54.714Z,12.93
2019-03-19T05:58:49.331Z,14.00
2019-03-19T06:03:43.924Z,12.10
2019-03-19T06:08:38.535Z,12.27
2019-03-19T06:13:33.141Z,11.47
2019-03-19T06:18:35.189Z,11.07
2019-03-19T06:23:24.054Z,9.43
2019-03-19T06:28:18.663Z,9.93
2019-03-19T06:33:13.319Z,13.00
2019-03-19T06:38:08.027Z,11.07
2019-03-19T06:43:02.612Z,13.07
2019-03-19T06:47:57.242Z,13.57
2019-03-19T06:52:51.911Z,13.00
2019-03-19T06:57:47.282Z,14.60
2019-03-19T07:02:41.906Z,14.27
2019-03-19T07:07:36.526Z,19.57
2019-03-19T07:12:31.106Z,15.93
2019-03-19T07:17:25.754Z,14.37
2019-03-19T07:22:20.362Z,14.13
2019-03-19T07:27:15.176Z,15.73
2019-03-19T07:32:09.843Z,14.93
2019-03-19T07:37:04.973Z,14.23
2019-03-19T07:42:05.604Z,15.80
2019-03-19T07:47:05.784Z,17.27
2019-03-19T07:52:01.031Z,17.07
2019-03-19T07:56:56.106Z,15.47
2019-03-19T08:01:57.898Z,17.17
2019-03-19T08:06:57.224Z,15.73
2019-03-19T08:12:02.370Z,14.80
2019-03-19T08:17:03.490Z,14.53
2019-03-19T08:21:59.221Z,14.80
2019-03-19T08:26:53.898Z,13.50
2019-03-19T08:31:53.113Z,13.23
2019-03-19T08:36:47.726Z,14.23
2019-03-19T08:41:42.458Z,13.80
2019-03-19T08:46:37.123Z,15.30
2019-03-19T08:51:31.743Z,15.00
2019-03-19T08:56:26.866Z,14.33
2019-03-19T09:01:24.766Z,14.17
2019-03-19T09:06:19.731Z,12.97
2019-03-19T09:11:15.528Z,13.63
2019-03-19T09:16:20.173Z,14.07
2019-03-19T09:21:13.068Z,13.80
2019-03-19T09:26:08.839Z,13.30
2019-03-19T09:31:03.464Z,13.13
2019-03-19T09:35:58.467Z,13.30
2019-03-19T09:40:53.803Z,12.43
2019-03-19T09:45:50.300Z,13.27
2019-03-19T09:50:44.937Z,13.70
2019-03-19T09:55:39.753Z,12.57
2019-03-19T10:00:34.554Z,12.10
2019-03-19T10:05:30.008Z,13.07
2019-03-19T10:10:26.447Z,13.33
2019-03-19T10:15:21.231Z,13.63
2019-03-19T10:20:27.029Z,14.00
2019-03-19T10:25:21.650Z,13.17
2019-03-19T10:30:27.917Z,12.83
2019-03-19T10:35:22.628Z,12.40
2019-03-19T10:40:23.438Z,10.97
2019-03-19T10:45:24.344Z,10.47
2019-03-19T10:50:23.077Z,10.60
2019-03-19T10:55:17.827Z,9.83
2019-03-19T11:00:24.638Z,9.80
2019-03-19T11:05:21.037Z,9.50
2019-03-19T11:10:17.235Z,9.90
2019-03-19T11:15:21.086Z,9.37
2019-03-19T11:20:18.633Z,7.97
2019-03-19T11:25:17.441Z,8.33
2019-03-19T11:30:18.644Z,8.50
2019-03-19T11:35:14.239Z,7.57
2019-03-19T11:40:13.481Z,8.03
2019-03-19T11:45:12.488Z,7.10
2019-03-19T11:50:14.639Z,6.20
2019-03-19T11:55:13.592Z,6.00
2019-03-19T12:00:26.733Z,4.00
2019-03-19T12:05:21.318Z,4.47
2019-03-19T12:10:16.189Z,5.53
2019-03-19T12:15:12.647Z,6.20
2019-03-19T12:20:16.268Z,8.13
2019-03-19T12:25:14.910Z,5.60
2019-03-19T12:30:23.723Z,2.80
2019-03-19T12:35:20.569Z,3.13
2019-03-19T12:40:19.521Z,3.43
2019-03-19T12:45:22.769Z,5.47
2019-03-19T12:50:26.344Z,5.47
2019-03-19T12:55:21.261Z,3.63
2019-03-19T13:00:34.614Z,2.70
2019-03-19T13:05:25.890Z,2.60
2019-03-19T13:10:24.130Z,1.80
2019-03-19T13:15:20.629Z,1.40
2019-03-19T13:20:17.019Z,1.20
2019-03-19T13:25:23.268Z,1.10
2019-03-19T13:30:27.090Z,1.60
2019-03-19T13:35:21.935Z,1.20
2019-03-19T13:40:18.782Z,0.90
2019-03-19T13:45:17.282Z,1.00
2019-03-19T13:50:30.714Z,1.17
2019-03-19T13:55:26.823Z,1.10
2019-03-19T14:00:23.895Z,1.00
2019-03-19T14:05:20.702Z,1.00
2019-03-19T14:10:21.258Z,1.00
2019-03-19T14:15:19.158Z,1.50
2019-03-19T14:20:16.803Z,1.47
2019-03-19T14:25:13.905Z,1.17
2019-03-19T14:30:19.211Z,2.03
2019-03-19T14:35:14.646Z,1.10
2019-03-19T14:40:23.897Z,1.53
2019-03-19T14:45:19.360Z,1.40
2019-03-19T14:50:17.234Z,2.20
2019-03-19T14:55:12.032Z,2.53
2019-03-19T15:00:16.551Z,2.20
2019-03-19T15:05:13.631Z,1.90
2019-03-19T15:10:18.832Z,1.50
2019-03-19T15:15:19.043Z,1.70
2019-03-19T15:20:22.947Z,1.83
2019-03-19T15:25:17.511Z,1.63
2019-03-19T15:30:18.575Z,1.80
2019-03-19T15:35:13.411Z,1.60
2019-03-19T15:40:14.221Z,2.50
2019-03-19T15:45:15.945Z,1.90
2019-03-19T15:50:16.213Z,1.70
2019-03-19T15:55:13.011Z,1.80
2019-03-19T16:00:17.823Z,1.97
2019-03-19T16:05:14.438Z,1.83
2019-03-19T16:10:18.305Z,1.57
2019-03-19T16:15:15.476Z,1.70
2019-03-19T16:20:15.993Z,2.00
2019-03-19T16:25:10.798Z,2.00
2019-03-19T16:30:10.898Z,1.90
2019-03-19T16:35:08.330Z,1.60
2019-03-19T16:40:02.903Z,1.53
2019-03-19T16:44:57.531Z,1.37
2019-03-19T16:49:52.106Z,1.50
2019-03-19T16:54:46.691Z,1.80
2019-03-19T16:59:45.055Z,2.13
2019-03-19T17:04:39.821Z,1.77
2019-03-19T17:09:34.429Z,1.90
2019-03-19T17:14:29.037Z,2.00
2019-03-19T17:19:23.625Z,1.80
2019-03-19T17:24:18.439Z,1.93
2019-03-19T17:29:13.109Z,1.80
2019-03-19T17:34:07.743Z,1.57
2019-03-19T17:39:02.329Z,1.80
2019-03-19T17:43:56.906Z,1.73
2019-03-19T17:48:52.355Z,1.80
2019-03-19T17:53:47.238Z,4.80
2019-03-19T17:58:41.840Z,3.77
2019-03-19T18:03:36.423Z,3.47
2019-03-19T18:08:30.995Z,3.27
2019-03-19T18:13:25.590Z,4.03
2019-03-19T18:18:20.157Z,4.30
2019-03-19T18:23:14.749Z,3.80
2019-03-19T18:28:09.343Z,4.00
2019-03-19T18:33:03.974Z,4.30
2019-03-19T18:37:58.520Z,3.70
2019-03-19T18:42:53.123Z,3.70
2019-03-19T18:47:47.776Z,3.83
2019-03-19T18:52:42.376Z,4.17
2019-03-19T18:57:36.958Z,4.83
2019-03-19T19:02:31.568Z,6.13
2019-03-19T19:07:26.151Z,13.57
2019-03-19T19:12:20.748Z,9.53
2019-03-19T19:17:15.344Z,11.30
2019-03-19T19:22:09.968Z,8.20
2019-03-19T19:27:04.506Z,5.33
2019-03-19T19:31:59.127Z,6.00
2019-03-19T19:36:53.698Z,4.70
2019-03-19T19:41:48.294Z,3.90
2019-03-19T19:46:42.871Z,3.50
2019-03-19T19:51:37.484Z,4.47
2019-03-19T19:56:32.070Z,4.50
2019-03-19T20:01:26.691Z,4.60
2019-03-19T20:06:21.268Z,5.47
2019-03-19T20:11:15.883Z,6.63
2019-03-19T20:16:10.451Z,6.57
2019-03-19T20:21:05.113Z,6.67
2019-03-19T20:25:59.697Z,6.53
2019-03-19T20:30:54.294Z,6.40
2019-03-19T20:35:49.757Z,6.30
2019-03-19T20:40:44.486Z,5.97
2019-03-19T20:45:39.072Z,4.63
2019-03-19T20:50:39.520Z,4.50
2019-03-19T20:55:34.112Z,5.17
2019-03-19T21:00:28.703Z,7.27
2019-03-19T21:05:23.355Z,7.73
2019-03-19T21:10:20.830Z,6.53
2019-03-19T21:15:31.802Z,6.83
2019-03-19T21:20:26.522Z,7.37
2019-03-19T21:25:21.197Z,7.23
2019-03-19T21:30:21.786Z,5.00
2019-03-19T21:35:21.578Z,5.07
2019-03-19T21:40:16.857Z,4.40
2019-03-19T21:45:22.878Z,4.33
2019-03-19T21:50:19.668Z,5.13
2019-03-19T21:55:14.982Z,5.00
2019-03-19T22:00:19.942Z,4.70
2019-03-19T22:05:14.715Z,4.60
2019-03-19T22:10:18.144Z,4.83
2019-03-19T22:15:18.409Z,4.80
2019-03-19T22:20:13.801Z,4.97
2019-03-19T22:25:12.443Z,6.30
2019-03-19T22:30:11.616Z,6.70
2019-03-19T22:35:07.894Z,5.80
2019-03-19T22:40:02.482Z,4.70
2019-03-19T22:44:57.076Z,4.40
2019-03-19T22:49:51.688Z,5.10
2019-03-19T22:54:46.253Z,5.33
2019-03-19T22:59:40.848Z,4.63
2019-03-19T23:04:35.420Z,5.00
2019-03-19T23:09:30.085Z,3.77
2019-03-19T23:14:24.664Z,3.80
2019-03-19T23:19:19.255Z,3.70
2019-03-19T23:24:13.830Z,4.03
2019-03-19T23:29:08.421Z,3.90
2019-03-19T23:34:03.007Z,3.60
2019-03-19T23:38:57.611Z,3.80
2019-03-19T23:43:52.194Z,3.87
2019-03-19T23:48:46.788Z,3.53
2019-03-19T23:53:41.358Z,3.83
2019-03-19T23:58:35.958Z,3.97
